createdAt,value
2022-10-18T00:00:48.000Z,4026.0
2022-10-18T00:01:49.000Z,4141.0
2022-10-18T00:02:49.000Z,4265.0
2022-10-18T00:03:49.000Z,4216.0
2022-10-18T00:04:49.000Z,4081.0
2022-10-18T00:05:50.000Z,4126.0
2022-10-18T00:06:49.000Z,4035.0
2022-10-18T00:07:49.000Z,4111.0
2022-10-18T00:08:49.000Z,3945.0
2022-10-18T00:09:49.000Z,4052.0
2022-10-18T00:10:50.000Z,4055.0
2022-10-18T00:11:49.000Z,4085.0
2022-10-18T00:12:49.000Z,3963.0
2022-10-18T00:13:48.000Z,3869.0
2022-10-18T00:14:49.000Z,3924.0
2022-10-18T00:15:49.000Z,4043.0
2022-10-18T00:16:49.000Z,4075.0
2022-10-18T00:17:49.000Z,4280.0
2022-10-18T00:18:48.000Z,4295.0
2022-10-18T00:19:49.000Z,4149.0
2022-10-18T00:20:49.000Z,3899.0
2022-10-18T00:21:49.000Z,3640.0
2022-10-18T00:22:49.000Z,3415.0
2022-10-18T00:23:50.000Z,3103.0
2022-10-18T00:24:49.000Z,2924.0
2022-10-18T00:25:49.000Z,3035.0
2022-10-18T00:26:48.000Z,3257.0
2022-10-18T00:27:49.000Z,3382.0
2022-10-18T00:28:49.000Z,3583.0
2022-10-18T00:29:49.000Z,3451.0
2022-10-18T00:30:49.000Z,3467.0
2022-10-18T00:31:50.000Z,3439.0
2022-10-18T00:32:49.000Z,3219.0
2022-10-18T00:33:49.000Z,3062.0
2022-10-18T00:34:49.000Z,3129.0
2022-10-18T00:35:49.000Z,3034.0
2022-10-18T00:36:49.000Z,3103.0
2022-10-18T00:37:49.000Z,3113.0
2022-10-18T00:38:49.000Z,3536.0
2022-10-18T00:39:48.000Z,3757.0
2022-10-18T00:40:49.000Z,3582.0
2022-10-18T00:41:49.000Z,3546.0
2022-10-18T00:42:49.000Z,3803.0
2022-10-18T00:43:49.000Z,3875.0
2022-10-18T00:44:50.000Z,3879.0
2022-10-18T00:45:49.000Z,3707.0
2022-10-18T00:46:49.000Z,3889.0
2022-10-18T00:47:48.000Z,3407.0
2022-10-18T00:48:49.000Z,3300.0
2022-10-18T00:49:49.000Z,3343.0
2022-10-18T00:50:49.000Z,3461.0
2022-10-18T00:51:49.000Z,3301.0
2022-10-18T00:52:48.000Z,3185.0
2022-10-18T00:53:49.000Z,3022.0
2022-10-18T00:54:49.000Z,2830.0
2022-10-18T00:55:49.000Z,3025.0
2022-10-18T00:56:49.000Z,3140.0
2022-10-18T00:57:50.000Z,3268.0
2022-10-18T00:58:49.000Z,3371.0
2022-10-18T00:59:49.000Z,3583.0
2022-10-18T01:00:48.000Z,3731.0
2022-10-18T01:01:49.000Z,3990.0
2022-10-18T01:02:49.000Z,4109.0
2022-10-18T01:03:49.000Z,4088.0
2022-10-18T01:04:49.000Z,4131.0
2022-10-18T01:05:48.000Z,4196.0
2022-10-18T01:06:49.000Z,3889.0
2022-10-18T01:07:49.000Z,3662.0
2022-10-18T01:08:49.000Z,3768.0
2022-10-18T01:09:49.000Z,3453.0
2022-10-18T01:10:50.000Z,3603.0
2022-10-18T01:11:49.000Z,3665.0
2022-10-18T01:12:49.000Z,3775.0
2022-10-18T01:13:48.000Z,3863.0
2022-10-18T01:14:49.000Z,3629.0
2022-10-18T01:15:49.000Z,3216.0
2022-10-18T01:16:49.000Z,3329.0
2022-10-18T01:17:49.000Z,3122.0
2022-10-18T01:18:48.000Z,3085.0
2022-10-18T01:19:49.000Z,3043.0
2022-10-18T01:20:49.000Z,3217.0
2022-10-18T01:21:49.000Z,3272.0
2022-10-18T01:22:49.000Z,3369.0
2022-10-18T01:23:50.000Z,3609.0
2022-10-18T01:24:49.000Z,3641.0
2022-10-18T01:25:49.000Z,3578.0
2022-10-18T01:26:48.000Z,3518.0
2022-10-18T01:27:49.000Z,3451.0
2022-10-18T01:28:49.000Z,3494.0
2022-10-18T01:29:49.000Z,3353.0
2022-10-18T01:30:49.000Z,3412.0
2022-10-18T01:31:48.000Z,3471.0
2022-10-18T01:32:49.000Z,3741.0
2022-10-18T01:33:49.000Z,4034.0
2022-10-18T01:34:49.000Z,4100.0
2022-10-18T01:35:49.000Z,4232.0
2022-10-18T01:36:50.000Z,4159.0
2022-10-18T01:37:49.000Z,4202.0
2022-10-18T01:38:49.000Z,4342.0
2022-10-18T01:39:48.000Z,4290.0
2022-10-18T01:40:49.000Z,4075.0
2022-10-18T01:41:49.000Z,3881.0
2022-10-18T01:42:49.000Z,3662.0
2022-10-18T01:43:49.000Z,3486.0
2022-10-18T01:44:48.000Z,3260.0
2022-10-18T01:45:49.000Z,3282.0
2022-10-18T01:46:49.000Z,3232.0
2022-10-18T01:47:49.000Z,3123.0
2022-10-18T01:48:49.000Z,3088.0
2022-10-18T01:49:49.000Z,3033.0
2022-10-18T01:50:49.000Z,3006.0
2022-10-18T01:51:49.000Z,2992.0
2022-10-18T01:52:48.000Z,3050.0
2022-10-18T01:53:49.000Z,2901.0
2022-10-18T01:54:49.000Z,2956.0
2022-10-18T01:55:49.000Z,2923.0
2022-10-18T01:56:49.000Z,2881.0
2022-10-18T01:57:50.000Z,2814.0
2022-10-18T01:58:49.000Z,2882.0
2022-10-18T01:59:49.000Z,2907.0
2022-10-18T02:00:48.000Z,2939.0
2022-10-18T02:01:49.000Z,2850.0
2022-10-18T02:02:49.000Z,2878.0
2022-10-18T02:03:49.000Z,2249.0
2022-10-18T02:04:49.000Z,1662.0
2022-10-18T02:05:48.000Z,1646.0
2022-10-18T02:06:49.000Z,1273.0
2022-10-18T02:07:49.000Z,1090.0
2022-10-18T02:08:49.000Z,876.0
2022-10-18T02:09:49.000Z,708.0
2022-10-18T02:10:50.000Z,625.0
2022-10-18T02:11:49.000Z,564.0
2022-10-18T02:12:49.000Z,689.0
2022-10-18T02:13:48.000Z,1100.0
2022-10-18T02:14:49.000Z,1378.0
2022-10-18T02:15:49.000Z,1606.0
2022-10-18T02:16:49.000Z,1968.0
2022-10-18T02:17:49.000Z,2274.0
2022-10-18T02:18:48.000Z,2498.0
2022-10-18T02:19:49.000Z,2521.0
2022-10-18T02:20:49.000Z,2736.0
2022-10-18T02:21:49.000Z,3001.0
2022-10-18T02:22:49.000Z,1695.0
2022-10-18T02:23:49.000Z,1419.0
2022-10-18T02:24:49.000Z,1470.0
2022-10-18T02:25:49.000Z,1554.0
2022-10-18T02:26:48.000Z,1697.0
2022-10-18T02:27:49.000Z,1007.0
2022-10-18T02:28:49.000Z,602.0
2022-10-18T02:29:49.000Z,1000.0
2022-10-18T02:30:49.000Z,1307.0
2022-10-18T02:31:48.000Z,1488.0
2022-10-18T02:32:49.000Z,1674.0
2022-10-18T02:33:49.000Z,1839.0
2022-10-18T02:34:48.000Z,1909.0
2022-10-18T02:35:49.000Z,1885.0
2022-10-18T02:36:50.000Z,1325.0
2022-10-18T02:37:49.000Z,1449.0
2022-10-18T02:38:49.000Z,1052.0
2022-10-18T02:39:48.000Z,1109.0
2022-10-18T02:40:49.000Z,630.0
2022-10-18T02:41:49.000Z,542.0
2022-10-18T02:42:49.000Z,948.0
2022-10-18T02:43:49.000Z,1301.0
2022-10-18T02:44:50.000Z,1497.0
2022-10-18T02:45:49.000Z,1730.0
2022-10-18T02:46:49.000Z,1879.0
2022-10-18T02:47:49.000Z,2058.0
2022-10-18T02:48:49.000Z,2187.0
2022-10-18T02:49:49.000Z,1896.0
2022-10-18T02:50:48.000Z,945.0
2022-10-18T02:51:49.000Z,1111.0
2022-10-18T02:52:49.000Z,1186.0
2022-10-18T02:53:49.000Z,1304.0
2022-10-18T02:54:49.000Z,972.0
2022-10-18T02:55:50.000Z,672.0
2022-10-18T02:56:49.000Z,1099.0
2022-10-18T02:57:49.000Z,599.0
2022-10-18T02:58:48.000Z,633.0
2022-10-18T02:59:49.000Z,846.0
2022-10-18T03:00:49.000Z,638.0
2022-10-18T03:01:49.000Z,601.0
2022-10-18T03:02:49.000Z,839.0
2022-10-18T03:03:48.000Z,955.0
2022-10-18T03:04:49.000Z,983.0
2022-10-18T03:05:49.000Z,1088.0
2022-10-18T03:06:49.000Z,1094.0
2022-10-18T03:07:49.000Z,325.0
2022-10-18T03:08:50.000Z,202.0
2022-10-18T03:09:49.000Z,159.0
2022-10-18T03:10:49.000Z,136.0
2022-10-18T03:11:48.000Z,146.0
2022-10-18T03:12:49.000Z,143.0
2022-10-18T03:13:49.000Z,153.0
2022-10-18T03:14:49.000Z,151.0
2022-10-18T03:15:49.000Z,149.0
2022-10-18T03:16:48.000Z,198.0
2022-10-18T03:17:49.000Z,421.0
2022-10-18T03:18:49.000Z,275.0
2022-10-18T03:19:49.000Z,323.0
2022-10-18T03:20:49.000Z,356.0
2022-10-18T03:21:50.000Z,424.0
2022-10-18T03:22:49.000Z,439.0
2022-10-18T03:23:49.000Z,382.0
2022-10-18T03:24:48.000Z,416.0
2022-10-18T03:25:49.000Z,491.0
2022-10-18T03:26:49.000Z,850.0
2022-10-18T03:27:49.000Z,659.0
2022-10-18T03:28:49.000Z,695.0
2022-10-18T03:29:48.000Z,627.0
2022-10-18T03:30:49.000Z,748.0
2022-10-18T03:31:49.000Z,564.0
2022-10-18T03:32:49.000Z,816.0
2022-10-18T03:33:49.000Z,1079.0
2022-10-18T03:34:49.000Z,955.0
2022-10-18T03:35:49.000Z,358.0
2022-10-18T03:36:49.000Z,403.0
2022-10-18T03:37:48.000Z,725.0
2022-10-18T03:38:49.000Z,714.0
2022-10-18T03:39:49.000Z,833.0
2022-10-18T03:40:49.000Z,606.0
2022-10-18T03:41:49.000Z,1103.0
2022-10-18T03:42:48.000Z,1439.0
2022-10-18T03:43:49.000Z,1765.0
2022-10-18T03:44:49.000Z,1962.0
2022-10-18T03:45:48.000Z,2267.0
2022-10-18T03:46:49.000Z,2071.0
2022-10-18T03:47:50.000Z,2046.0
2022-10-18T03:48:49.000Z,2085.0
2022-10-18T03:49:49.000Z,2078.0
2022-10-18T03:50:49.000Z,2004.0
2022-10-18T03:51:49.000Z,2236.0
2022-10-18T03:52:49.000Z,2201.0
2022-10-18T03:53:48.000Z,2071.0
2022-10-18T03:54:49.000Z,2291.0
2022-10-18T03:55:49.000Z,2499.0
2022-10-18T03:56:48.000Z,2694.0
2022-10-18T03:57:49.000Z,2837.0
2022-10-18T03:58:50.000Z,2927.0
2022-10-18T03:59:49.000Z,2703.0
2022-10-18T04:00:49.000Z,2651.0
2022-10-18T04:01:48.000Z,2490.0
2022-10-18T04:02:49.000Z,2597.0
2022-10-18T04:03:49.000Z,2595.0
2022-10-18T04:04:49.000Z,2625.0
2022-10-18T04:05:49.000Z,2801.0
2022-10-18T04:06:48.000Z,2813.0
2022-10-18T04:07:49.000Z,2924.0
2022-10-18T04:08:49.000Z,2900.0
2022-10-18T04:09:49.000Z,3102.0
2022-10-18T04:10:49.000Z,3131.0
2022-10-18T04:11:49.000Z,3299.0
2022-10-18T04:12:49.000Z,3233.0
2022-10-18T04:13:49.000Z,3186.0
2022-10-18T04:14:48.000Z,3087.0
2022-10-18T04:15:49.000Z,2895.0
2022-10-18T04:16:49.000Z,2588.0
2022-10-18T04:17:49.000Z,2450.0
2022-10-18T04:18:49.000Z,2418.0
2022-10-18T04:19:48.000Z,2546.0
2022-10-18T04:20:49.000Z,2757.0
2022-10-18T04:21:49.000Z,2768.0
2022-10-18T04:22:48.000Z,2713.0
2022-10-18T04:23:49.000Z,2794.0
2022-10-18T04:24:49.000Z,2851.0
2022-10-18T04:25:49.000Z,2818.0
2022-10-18T04:26:49.000Z,2652.0
2022-10-18T04:27:48.000Z,2611.0
2022-10-18T04:28:49.000Z,2753.0
2022-10-18T04:29:49.000Z,2931.0
2022-10-18T04:30:49.000Z,3129.0
2022-10-18T04:31:49.000Z,2912.0
2022-10-18T04:32:48.000Z,2807.0
2022-10-18T04:33:49.000Z,2871.0
2022-10-18T04:34:49.000Z,2744.0
2022-10-18T04:35:48.000Z,2708.0
2022-10-18T04:36:49.000Z,2871.0
2022-10-18T04:37:49.000Z,2848.0
2022-10-18T04:38:49.000Z,2868.0
2022-10-18T04:39:49.000Z,2800.0
2022-10-18T04:40:48.000Z,2732.0
2022-10-18T04:41:49.000Z,2754.0
2022-10-18T04:42:49.000Z,2805.0
2022-10-18T04:43:49.000Z,3016.0
2022-10-18T04:44:49.000Z,2953.0
2022-10-18T04:45:48.000Z,2920.0
2022-10-18T04:46:49.000Z,2929.0
2022-10-18T04:47:49.000Z,2751.0
2022-10-18T04:48:48.000Z,2699.0
2022-10-18T04:49:49.000Z,2846.0
2022-10-18T04:50:49.000Z,2702.0
2022-10-18T04:51:48.000Z,2832.0
2022-10-18T04:52:49.000Z,2935.0
2022-10-18T04:53:49.000Z,3013.0
2022-10-18T04:54:49.000Z,3045.0
2022-10-18T04:55:49.000Z,3152.0
2022-10-18T04:56:48.000Z,3177.0
2022-10-18T04:57:49.000Z,3090.0
2022-10-18T04:58:49.000Z,2984.0
2022-10-18T04:59:48.000Z,3155.0
2022-10-18T05:00:49.000Z,3202.0
2022-10-18T05:01:49.000Z,3270.0
2022-10-18T05:02:49.000Z,3418.0
2022-10-18T05:03:49.000Z,3594.0
2022-10-18T05:04:48.000Z,3568.0
2022-10-18T05:05:49.000Z,3665.0
2022-10-18T05:06:49.000Z,3692.0
2022-10-18T05:07:49.000Z,3774.0
2022-10-18T05:08:49.000Z,3226.0
2022-10-18T05:09:48.000Z,2866.0
2022-10-18T05:10:49.000Z,2903.0
2022-10-18T05:11:49.000Z,2845.0
2022-10-18T05:12:48.000Z,2435.0
2022-10-18T05:13:49.000Z,2199.0
2022-10-18T05:14:49.000Z,2307.0
2022-10-18T05:15:49.000Z,2405.0
2022-10-18T05:16:49.000Z,2285.0
2022-10-18T05:17:48.000Z,2441.0
2022-10-18T05:18:49.000Z,2599.0
2022-10-18T05:19:49.000Z,2608.0
2022-10-18T05:20:49.000Z,2732.0
2022-10-18T05:21:49.000Z,2724.0
2022-10-18T05:22:48.000Z,2821.0
2022-10-18T05:23:49.000Z,2897.0
2022-10-18T05:24:49.000Z,2823.0
2022-10-18T05:25:48.000Z,2919.0
2022-10-18T05:26:49.000Z,2846.0
2022-10-18T05:27:49.000Z,2868.0
2022-10-18T05:28:49.000Z,2642.0
2022-10-18T05:29:49.000Z,2173.0
2022-10-18T05:30:48.000Z,1849.0
2022-10-18T05:31:49.000Z,2244.0
2022-10-18T05:32:49.000Z,2419.0
2022-10-18T05:33:49.000Z,2645.0
2022-10-18T05:34:49.000Z,2285.0
2022-10-18T05:35:48.000Z,1833.0
2022-10-18T05:36:49.000Z,1732.0
2022-10-18T05:37:49.000Z,2048.0
2022-10-18T05:38:48.000Z,2067.0
2022-10-18T05:39:49.000Z,2138.0
2022-10-18T05:40:49.000Z,2363.0
2022-10-18T05:41:49.000Z,2574.0
2022-10-18T05:42:49.000Z,2687.0
2022-10-18T05:43:48.000Z,2790.0
2022-10-18T05:44:49.000Z,2731.0
2022-10-18T05:45:49.000Z,2950.0
2022-10-18T05:46:49.000Z,3225.0
2022-10-18T05:47:49.000Z,3351.0
2022-10-18T05:48:49.000Z,3448.0
2022-10-18T05:49:49.000Z,3466.0
2022-10-18T05:50:49.000Z,3516.0
2022-10-18T05:51:49.000Z,3549.0
2022-10-18T05:52:49.000Z,3520.0
2022-10-18T05:53:49.000Z,3497.0
2022-10-18T05:54:48.000Z,3532.0
2022-10-18T05:55:49.000Z,2746.0
2022-10-18T05:56:49.000Z,1761.0
2022-10-18T05:57:49.000Z,1512.0
2022-10-18T05:58:49.000Z,1327.0
2022-10-18T05:59:48.000Z,1620.0
2022-10-18T06:00:49.000Z,2107.0
2022-10-18T06:01:49.000Z,2462.0
2022-10-18T06:02:48.000Z,2722.0
2022-10-18T06:03:49.000Z,2962.0
2022-10-18T06:04:49.000Z,2868.0
2022-10-18T06:05:49.000Z,2625.0
2022-10-18T06:06:49.000Z,3052.0
2022-10-18T06:07:48.000Z,3244.0
2022-10-18T06:08:49.000Z,3294.0
2022-10-18T06:09:49.000Z,3199.0
2022-10-18T06:10:49.000Z,3164.0
2022-10-18T06:11:49.000Z,3093.0
2022-10-18T06:12:48.000Z,3009.0
2022-10-18T06:13:49.000Z,3000.0
2022-10-18T06:14:49.000Z,2758.0
2022-10-18T06:15:48.000Z,2657.0
2022-10-18T06:16:49.000Z,2517.0
2022-10-18T06:17:49.000Z,2406.0
2022-10-18T06:18:49.000Z,2420.0
2022-10-18T06:19:49.000Z,2601.0
2022-10-18T06:20:48.000Z,2675.0
2022-10-18T06:21:49.000Z,2865.0
2022-10-18T06:22:49.000Z,2928.0
2022-10-18T06:23:49.000Z,2999.0
2022-10-18T06:24:49.000Z,3020.0
2022-10-18T06:25:48.000Z,2966.0
2022-10-18T06:26:49.000Z,2883.0
2022-10-18T06:27:49.000Z,2891.0
2022-10-18T06:28:48.000Z,2858.0
2022-10-18T06:29:49.000Z,2822.0
2022-10-18T06:30:49.000Z,3110.0
2022-10-18T06:31:49.000Z,3255.0
2022-10-18T06:32:49.000Z,3162.0
2022-10-18T06:33:48.000Z,2844.0
2022-10-18T06:34:49.000Z,2782.0
2022-10-18T06:35:49.000Z,2736.0
2022-10-18T06:36:49.000Z,2834.0
2022-10-18T06:37:49.000Z,3129.0
2022-10-18T06:38:49.000Z,2909.0
2022-10-18T06:39:49.000Z,2994.0
2022-10-18T06:40:49.000Z,2515.0
2022-10-18T06:41:48.000Z,2760.0
2022-10-18T06:42:49.000Z,3057.0
2022-10-18T06:43:49.000Z,3257.0
2022-10-18T06:44:49.000Z,3251.0
2022-10-18T06:45:49.000Z,3102.0
2022-10-18T06:46:48.000Z,3021.0
2022-10-18T06:47:49.000Z,2913.0
2022-10-18T06:48:49.000Z,2669.0
2022-10-18T06:49:48.000Z,2756.0
2022-10-18T06:50:49.000Z,2652.0
2022-10-18T06:51:49.000Z,2587.0
2022-10-18T06:52:48.000Z,2540.0
2022-10-18T06:53:49.000Z,2466.0
2022-10-18T06:54:49.000Z,2369.0
2022-10-18T06:55:49.000Z,2234.0
2022-10-18T06:56:49.000Z,2237.0
2022-10-18T06:57:48.000Z,2213.0
2022-10-18T06:58:49.000Z,2166.0
2022-10-18T06:59:49.000Z,2183.0
2022-10-18T07:00:48.000Z,2335.0
2022-10-18T07:01:49.000Z,2471.0
2022-10-18T07:02:49.000Z,2606.0
2022-10-18T07:03:49.000Z,2780.0
2022-10-18T07:04:49.000Z,2903.0
2022-10-18T07:05:48.000Z,2765.0
2022-10-18T07:06:49.000Z,2741.0
2022-10-18T07:07:49.000Z,2746.0
2022-10-18T07:08:49.000Z,2765.0
2022-10-18T07:09:49.000Z,2756.0
2022-10-18T07:10:48.000Z,2772.0
2022-10-18T07:11:49.000Z,2805.0
2022-10-18T07:12:49.000Z,2877.0
2022-10-18T07:13:48.000Z,2904.0
2022-10-18T07:14:49.000Z,2799.0
2022-10-18T07:15:49.000Z,2951.0
2022-10-18T07:16:49.000Z,3056.0
2022-10-18T07:17:49.000Z,3070.0
2022-10-18T07:18:48.000Z,2983.0
2022-10-18T07:19:49.000Z,2900.0
2022-10-18T07:20:49.000Z,2781.0
2022-10-18T07:21:49.000Z,2779.0
2022-10-18T07:22:49.000Z,2573.0
2022-10-18T07:23:48.000Z,2265.0
2022-10-18T07:24:49.000Z,2290.0
2022-10-18T07:25:49.000Z,2643.0
2022-10-18T07:26:48.000Z,3022.0
2022-10-18T07:27:49.000Z,3013.0
2022-10-18T07:28:49.000Z,3042.0
2022-10-18T07:29:49.000Z,2920.0
2022-10-18T07:30:49.000Z,2817.0
2022-10-18T07:31:48.000Z,2878.0
2022-10-18T07:32:49.000Z,2806.0
2022-10-18T07:33:49.000Z,2829.0
2022-10-18T07:34:49.000Z,3039.0
2022-10-18T07:35:49.000Z,3233.0
2022-10-18T07:36:48.000Z,3120.0
2022-10-18T07:37:49.000Z,3243.0
2022-10-18T07:38:49.000Z,2996.0
2022-10-18T07:39:48.000Z,2319.0
2022-10-18T07:40:49.000Z,2150.0
2022-10-18T07:41:49.000Z,1865.0
2022-10-18T07:42:49.000Z,1990.0
2022-10-18T07:43:49.000Z,2268.0
2022-10-18T07:44:48.000Z,2432.0
2022-10-18T07:45:49.000Z,2503.0
2022-10-18T07:46:49.000Z,2546.0
2022-10-18T07:47:49.000Z,2595.0
2022-10-18T07:48:49.000Z,2737.0
2022-10-18T07:49:49.000Z,2734.0
2022-10-18T07:50:48.000Z,2186.0
2022-10-18T07:51:49.000Z,2251.0
2022-10-18T07:52:49.000Z,2310.0
2022-10-18T07:53:49.000Z,2322.0
2022-10-18T07:54:49.000Z,1987.0
2022-10-18T07:55:48.000Z,2035.0
2022-10-18T07:56:49.000Z,1932.0
2022-10-18T07:57:49.000Z,1439.0
2022-10-18T07:58:48.000Z,980.0
2022-10-18T07:59:49.000Z,901.0
2022-10-18T08:00:48.000Z,789.0
2022-10-18T08:01:49.000Z,952.0
2022-10-18T08:02:49.000Z,1065.0
2022-10-18T08:03:48.000Z,1256.0
2022-10-18T08:04:49.000Z,1538.0
2022-10-18T08:05:49.000Z,1621.0
2022-10-18T08:06:49.000Z,1719.0
2022-10-18T08:07:49.000Z,1492.0
2022-10-18T08:08:48.000Z,604.0
2022-10-18T08:09:49.000Z,786.0
2022-10-18T08:10:49.000Z,925.0
2022-10-18T08:11:48.000Z,1236.0
2022-10-18T08:12:49.000Z,1721.0
2022-10-18T08:13:49.000Z,2213.0
2022-10-18T08:14:49.000Z,2607.0
2022-10-18T08:15:49.000Z,2734.0
2022-10-18T08:16:48.000Z,2885.0
2022-10-18T08:17:49.000Z,2404.0
2022-10-18T08:18:49.000Z,2395.0
2022-10-18T08:19:49.000Z,2482.0
2022-10-18T08:20:49.000Z,2697.0
2022-10-18T08:21:48.000Z,2847.0
2022-10-18T08:22:49.000Z,2906.0
2022-10-18T08:23:49.000Z,2969.0
2022-10-18T08:24:48.000Z,2918.0
2022-10-18T08:25:49.000Z,3049.0
2022-10-18T08:26:49.000Z,3158.0
2022-10-18T08:27:49.000Z,3348.0
2022-10-18T08:28:49.000Z,3780.0
2022-10-18T08:29:48.000Z,3831.0
2022-10-18T08:30:49.000Z,4425.0
2022-10-18T08:31:49.000Z,4570.0
2022-10-18T08:32:49.000Z,4714.0
2022-10-18T08:33:49.000Z,5037.0
2022-10-18T08:34:48.000Z,4949.0
2022-10-18T08:35:49.000Z,5155.0
2022-10-18T08:36:49.000Z,5104.0
2022-10-18T08:37:48.000Z,5045.0
2022-10-18T08:38:49.000Z,4844.0
2022-10-18T08:39:49.000Z,4983.0
2022-10-18T08:40:49.000Z,4860.0
2022-10-18T08:41:49.000Z,4633.0
2022-10-18T08:42:48.000Z,4606.0
2022-10-18T08:43:49.000Z,4521.0
2022-10-18T08:44:49.000Z,4497.0
2022-10-18T08:45:49.000Z,4060.0
2022-10-18T08:46:49.000Z,3916.0
2022-10-18T08:47:48.000Z,3845.0
2022-10-18T08:48:49.000Z,3413.0
2022-10-18T08:49:49.000Z,3028.0
2022-10-18T08:50:48.000Z,2337.0
2022-10-18T08:51:49.000Z,1757.0
2022-10-18T08:52:49.000Z,1784.0
2022-10-18T08:53:48.000Z,1738.0
2022-10-18T08:54:49.000Z,1799.0
2022-10-18T08:55:49.000Z,1874.0
2022-10-18T08:56:49.000Z,2088.0
2022-10-18T08:57:49.000Z,2198.0
2022-10-18T08:58:48.000Z,2545.0
2022-10-18T08:59:49.000Z,2782.0
2022-10-18T09:00:49.000Z,3087.0
2022-10-18T09:01:48.000Z,3288.0
2022-10-18T09:02:49.000Z,3451.0
2022-10-18T09:03:49.000Z,3547.0
2022-10-18T09:04:49.000Z,3805.0
2022-10-18T09:05:49.000Z,3993.0
2022-10-18T09:06:48.000Z,4238.0
2022-10-18T09:07:49.000Z,4216.0
2022-10-18T09:08:49.000Z,4270.0
2022-10-18T09:09:49.000Z,4363.0
2022-10-18T09:10:49.000Z,4307.0
2022-10-18T09:11:48.000Z,4330.0
2022-10-18T09:12:49.000Z,4537.0
2022-10-18T09:13:49.000Z,4817.0
2022-10-18T09:14:48.000Z,5274.0
2022-10-18T09:15:49.000Z,5610.0
2022-10-18T09:16:49.000Z,5622.0
2022-10-18T09:17:49.000Z,5665.0
2022-10-18T09:18:49.000Z,5837.0
2022-10-18T09:20:49.000Z,5948.0
2022-10-18T09:21:49.000Z,6753.0
2022-10-18T09:22:49.000Z,7068.0
2022-10-18T09:23:49.000Z,6909.0
2022-10-18T09:24:48.000Z,6899.0
2022-10-18T09:25:49.000Z,6953.0
2022-10-18T09:26:49.000Z,7236.0
2022-10-18T09:27:48.000Z,7580.0
2022-10-18T09:28:49.000Z,8113.0
2022-10-18T09:29:49.000Z,8299.0
2022-10-18T09:30:49.000Z,8515.0
2022-10-18T09:31:49.000Z,8356.0
2022-10-18T09:32:48.000Z,8665.0
2022-10-18T09:33:49.000Z,9403.0
2022-10-18T09:34:49.000Z,10226.0
2022-10-18T09:35:49.000Z,11047.0
2022-10-18T09:36:49.000Z,11118.0
2022-10-18T09:37:48.000Z,10622.0
2022-10-18T09:38:49.000Z,10912.0
2022-10-18T09:39:49.000Z,11100.0
2022-10-18T09:40:48.000Z,11267.0
2022-10-18T09:41:49.000Z,11988.0
2022-10-18T09:42:49.000Z,13522.0
2022-10-18T09:43:49.000Z,12632.0
2022-10-18T09:44:49.000Z,14052.0
2022-10-18T09:45:48.000Z,14526.0
2022-10-18T09:46:49.000Z,13345.0
2022-10-18T09:47:49.000Z,14332.0
2022-10-18T09:48:48.000Z,13241.0
2022-10-18T09:49:49.000Z,13427.0
2022-10-18T09:50:49.000Z,13605.0
2022-10-18T09:51:48.000Z,14037.0
2022-10-18T09:52:49.000Z,13722.0
2022-10-18T09:53:49.000Z,12855.0
2022-10-18T09:54:49.000Z,12736.0
2022-10-18T09:55:49.000Z,11908.0
2022-10-18T09:56:48.000Z,12416.0
2022-10-18T09:57:49.000Z,12478.0
2022-10-18T09:58:49.000Z,13105.0
2022-10-18T09:59:48.000Z,13447.0
2022-10-18T10:00:49.000Z,13208.0
2022-10-18T10:01:48.000Z,14129.0
2022-10-18T10:02:49.000Z,15223.0
2022-10-18T10:03:49.000Z,16000.0
2022-10-18T10:04:48.000Z,16000.0
2022-10-18T10:05:49.000Z,16000.0
2022-10-18T10:06:49.000Z,16000.0
2022-10-18T10:07:49.000Z,16000.0
2022-10-18T10:08:49.000Z,16000.0
2022-10-18T10:09:48.000Z,16000.0
2022-10-18T10:10:49.000Z,16000.0
2022-10-18T10:11:49.000Z,16000.0
2022-10-18T10:12:49.000Z,16000.0
2022-10-18T10:13:49.000Z,16000.0
2022-10-18T10:14:48.000Z,16000.0
2022-10-18T10:15:49.000Z,16000.0
2022-10-18T10:16:49.000Z,16000.0
2022-10-18T10:17:48.000Z,16000.0
2022-10-18T10:18:49.000Z,16000.0
2022-10-18T10:19:49.000Z,16000.0
2022-10-18T10:20:49.000Z,16000.0
2022-10-18T10:21:49.000Z,16000.0
2022-10-18T10:22:48.000Z,16000.0
2022-10-18T10:23:49.000Z,16000.0
2022-10-18T10:24:49.000Z,16000.0
2022-10-18T10:25:48.000Z,16000.0
2022-10-18T10:26:49.000Z,16000.0
2022-10-18T10:27:48.000Z,16000.0
2022-10-18T10:28:49.000Z,16000.0
2022-10-18T10:29:49.000Z,16000.0
2022-10-18T10:30:48.000Z,16000.0
2022-10-18T10:31:49.000Z,16000.0
2022-10-18T10:32:49.000Z,16000.0
2022-10-18T10:33:49.000Z,16000.0
2022-10-18T10:34:49.000Z,16000.0
2022-10-18T10:35:48.000Z,16000.0
2022-10-18T10:36:49.000Z,16000.0
2022-10-18T10:37:49.000Z,16000.0
2022-10-18T10:38:48.000Z,16000.0
2022-10-18T10:39:49.000Z,16000.0
2022-10-18T10:40:48.000Z,16000.0
2022-10-18T10:41:49.000Z,16000.0
2022-10-18T10:42:49.000Z,16000.0
2022-10-18T10:43:48.000Z,16000.0
2022-10-18T10:44:49.000Z,16000.0
2022-10-18T10:45:49.000Z,16000.0
2022-10-18T10:46:49.000Z,16000.0
2022-10-18T10:47:49.000Z,16000.0
2022-10-18T10:48:49.000Z,16000.0
2022-10-18T10:49:48.000Z,16000.0
2022-10-18T10:50:49.000Z,16000.0
2022-10-18T10:51:48.000Z,16000.0
2022-10-18T10:52:49.000Z,16000.0
2022-10-18T10:53:49.000Z,16000.0
2022-10-18T10:54:48.000Z,16000.0
2022-10-18T10:55:49.000Z,16000.0
2022-10-18T10:56:49.000Z,16000.0
2022-10-18T10:57:49.000Z,16000.0
2022-10-18T10:58:49.000Z,16000.0
2022-10-18T10:59:48.000Z,16000.0
2022-10-18T11:00:49.000Z,16000.0
2022-10-18T11:01:49.000Z,16000.0
2022-10-18T11:03:49.000Z,16000.0
2022-10-18T11:04:48.000Z,16000.0
2022-10-18T11:05:49.000Z,16000.0
2022-10-18T11:06:49.000Z,16000.0
2022-10-18T11:07:48.000Z,16000.0
2022-10-18T11:08:49.000Z,16000.0
2022-10-18T11:09:49.000Z,16000.0
2022-10-18T11:10:49.000Z,16000.0
2022-10-18T11:11:49.000Z,16000.0
2022-10-18T11:12:48.000Z,16000.0
2022-10-18T11:13:49.000Z,16000.0
2022-10-18T11:14:49.000Z,16000.0
2022-10-18T11:15:48.000Z,16000.0
2022-10-18T11:16:49.000Z,16000.0
2022-10-18T11:17:48.000Z,16000.0
2022-10-18T11:18:49.000Z,16000.0
2022-10-18T11:19:49.000Z,16000.0
2022-10-18T11:20:48.000Z,16000.0
2022-10-18T11:21:49.000Z,16000.0
2022-10-18T11:22:49.000Z,16000.0
2022-10-18T11:23:49.000Z,16000.0
2022-10-18T11:24:49.000Z,16000.0
2022-10-18T11:25:48.000Z,16000.0
2022-10-18T11:26:49.000Z,16000.0
2022-10-18T11:27:49.000Z,16000.0
2022-10-18T11:28:48.000Z,16000.0
2022-10-18T11:29:49.000Z,16000.0
2022-10-18T11:30:48.000Z,16000.0
2022-10-18T11:31:49.000Z,16000.0
2022-10-18T11:32:49.000Z,16000.0
2022-10-18T11:33:48.000Z,16000.0
2022-10-18T11:34:49.000Z,16000.0
2022-10-18T11:35:49.000Z,16000.0
2022-10-18T11:36:49.000Z,16000.0
2022-10-18T11:37:49.000Z,16000.0
2022-10-18T11:38:48.000Z,16000.0
2022-10-18T11:39:49.000Z,16000.0
2022-10-18T11:40:49.000Z,16000.0
2022-10-18T11:41:48.000Z,16000.0
2022-10-18T11:42:49.000Z,16000.0
2022-10-18T11:43:48.000Z,16000.0
2022-10-18T11:44:49.000Z,16000.0
2022-10-18T11:45:49.000Z,16000.0
2022-10-18T11:46:48.000Z,16000.0
2022-10-18T11:47:49.000Z,16000.0
2022-10-18T11:48:49.000Z,16000.0
2022-10-18T11:49:48.000Z,16000.0
2022-10-18T11:50:49.000Z,16000.0
2022-10-18T11:51:49.000Z,16000.0
2022-10-18T11:52:49.000Z,16000.0
2022-10-18T11:53:49.000Z,16000.0
2022-10-18T11:54:48.000Z,16000.0
2022-10-18T11:55:49.000Z,16000.0
2022-10-18T11:56:49.000Z,16000.0
2022-10-18T11:57:48.000Z,16000.0
2022-10-18T11:58:49.000Z,16000.0
2022-10-18T11:59:49.000Z,16000.0
2022-10-18T12:00:49.000Z,16000.0
2022-10-18T12:01:49.000Z,16000.0
2022-10-18T12:02:48.000Z,16000.0
2022-10-18T12:03:49.000Z,16000.0
2022-10-18T12:04:49.000Z,16000.0
2022-10-18T12:05:48.000Z,16000.0
2022-10-18T12:06:49.000Z,16000.0
2022-10-18T12:07:49.000Z,16000.0
2022-10-18T12:08:49.000Z,16000.0
2022-10-18T12:09:49.000Z,16000.0
2022-10-18T12:10:48.000Z,16000.0
2022-10-18T12:11:49.000Z,16000.0
2022-10-18T12:12:49.000Z,16000.0
2022-10-18T12:13:48.000Z,16000.0
2022-10-18T12:14:49.000Z,16000.0
2022-10-18T12:15:48.000Z,16000.0
2022-10-18T12:16:49.000Z,16000.0
2022-10-18T12:17:49.000Z,16000.0
2022-10-18T12:18:48.000Z,16000.0
2022-10-18T12:19:49.000Z,16000.0
2022-10-18T12:20:49.000Z,16000.0
2022-10-18T12:21:49.000Z,16000.0
2022-10-18T12:22:49.000Z,16000.0
2022-10-18T12:23:48.000Z,16000.0
2022-10-18T12:24:49.000Z,16000.0
2022-10-18T12:25:49.000Z,16000.0
2022-10-18T12:26:48.000Z,16000.0